createdAt,value
2017-10-26T00:00:58.775Z,12.29
2017-10-26T00:05:02.205Z,12.28
2017-10-26T00:09:05.686Z,12.32
2017-10-26T00:13:09.956Z,12.33
2017-10-26T00:17:13.407Z,12.39
2017-10-26T00:21:17.590Z,12.42
2017-10-26T00:25:21.030Z,12.40
2017-10-26T00:29:25.218Z,12.30
2017-10-26T00:33:28.669Z,12.26
2017-10-26T00:37:32.854Z,12.30
2017-10-26T00:41:36.313Z,12.35
2017-10-26T00:45:40.502Z,12.47
2017-10-26T00:49:43.943Z,12.50
2017-10-26T00:53:48.133Z,12.52
2017-10-26T00:57:51.884Z,12.44
2017-10-26T01:01:55.286Z,12.38
2017-10-26T01:05:59.819Z,12.32
2017-10-26T01:10:03.195Z,12.20
2017-10-26T01:14:06.612Z,12.18
2017-10-26T01:18:10.035Z,12.16
2017-10-26T01:22:14.274Z,12.13
2017-10-26T01:26:17.679Z,12.11
2017-10-26T01:30:21.366Z,12.09
2017-10-26T01:34:25.519Z,12.09
2017-10-26T01:38:28.939Z,12.14
2017-10-26T01:42:32.339Z,12.19
2017-10-26T01:46:36.030Z,12.19
2017-10-26T01:50:39.422Z,12.23
2017-10-26T01:54:43.675Z,12.25
2017-10-26T01:58:47.054Z,12.31
2017-10-26T02:02:51.562Z,12.29
2017-10-26T02:06:54.963Z,12.27
2017-10-26T02:10:58.719Z,12.21
2017-10-26T02:15:02.152Z,12.11
2017-10-26T02:19:05.842Z,12.08
2017-10-26T02:23:09.251Z,12.04
2017-10-26T02:27:13.468Z,12.03
2017-10-26T02:31:34.560Z,12.04
2017-10-26T02:35:37.999Z,11.99
2017-10-26T02:39:41.420Z,12.00
2017-10-26T02:43:44.872Z,12.00
2017-10-26T02:47:48.288Z,12.01
2017-10-26T02:51:51.744Z,12.02
2017-10-26T02:55:55.192Z,12.09
2017-10-26T02:59:58.659Z,12.12
2017-10-26T03:04:02.097Z,12.12
2017-10-26T03:08:05.555Z,12.13
2017-10-26T03:12:08.969Z,12.18
2017-10-26T03:16:12.398Z,12.19
2017-10-26T03:20:15.824Z,12.24
2017-10-26T03:24:19.670Z,12.29
2017-10-26T03:28:23.855Z,12.36
2017-10-26T03:32:27.615Z,12.41
2017-10-26T03:36:31.041Z,12.46
2017-10-26T03:40:34.490Z,12.51
2017-10-26T03:44:37.922Z,12.55
2017-10-26T03:48:41.359Z,12.56
2017-10-26T03:52:44.778Z,12.56
2017-10-26T03:56:48.240Z,12.57
2017-10-26T04:00:51.648Z,12.57
2017-10-26T04:04:55.877Z,12.54
2017-10-26T04:09:00.069Z,12.53
2017-10-26T04:13:03.568Z,12.49
2017-10-26T04:17:07.003Z,12.44
2017-10-26T04:21:10.447Z,12.43
2017-10-26T04:25:13.864Z,12.40
2017-10-26T04:29:17.620Z,12.30
2017-10-26T04:33:21.033Z,12.27
2017-10-26T04:37:24.778Z,12.25
2017-10-26T04:41:28.191Z,12.15
2017-10-26T04:45:31.668Z,12.09
2017-10-26T04:49:35.848Z,11.98
2017-10-26T04:53:39.625Z,11.96
2017-10-26T04:57:43.034Z,11.86
2017-10-26T05:01:46.532Z,11.80
2017-10-26T05:05:50.719Z,11.80
2017-10-26T05:09:54.200Z,11.73
2017-10-26T05:13:58.392Z,11.68
2017-10-26T05:18:02.610Z,11.62
2017-10-26T05:22:06.807Z,11.65
2017-10-26T05:26:10.331Z,11.67
2017-10-26T05:30:13.746Z,11.68
2017-10-26T05:34:17.942Z,11.63
2017-10-26T05:38:21.338Z,11.66
2017-10-26T05:42:25.063Z,11.63
2017-10-26T05:46:28.471Z,11.62
2017-10-26T05:50:31.921Z,11.56
2017-10-26T05:54:35.339Z,11.59
2017-10-26T05:58:38.797Z,11.55
2017-10-26T06:02:42.223Z,11.53
2017-10-26T06:06:46.436Z,11.56
2017-10-26T06:10:50.622Z,11.53
2017-10-26T06:14:54.065Z,11.55
2017-10-26T06:18:58.275Z,11.53
2017-10-26T06:23:01.720Z,11.48
2017-10-26T06:27:05.143Z,11.54
2017-10-26T06:31:08.615Z,11.56
2017-10-26T06:35:12.806Z,11.60
2017-10-26T06:39:16.259Z,11.68
2017-10-26T06:43:20.424Z,11.84
2017-10-26T06:47:24.206Z,11.89
2017-10-26T06:51:27.619Z,11.94
2017-10-26T06:55:31.069Z,11.96
2017-10-26T06:59:34.495Z,12.11
2017-10-26T07:03:37.935Z,12.22
2017-10-26T07:07:41.345Z,12.46
2017-10-26T07:11:44.787Z,12.64
2017-10-26T07:15:48.208Z,12.76
2017-10-26T07:19:51.964Z,12.69
2017-10-26T07:23:55.405Z,12.61
2017-10-26T07:27:58.842Z,12.56
2017-10-26T07:32:02.252Z,12.61
2017-10-26T07:36:05.964Z,12.66
2017-10-26T07:40:09.375Z,12.77
2017-10-26T07:44:13.126Z,12.90
2017-10-26T07:48:16.543Z,13.13
2017-10-26T07:52:19.987Z,13.22
2017-10-26T07:56:23.408Z,13.35
2017-10-26T08:00:26.848Z,13.51
2017-10-26T08:04:30.282Z,13.56
2017-10-26T08:08:34.000Z,13.77
2017-10-26T08:12:37.507Z,13.88
2017-10-26T08:16:40.959Z,14.10
2017-10-26T08:20:45.115Z,14.02
2017-10-26T08:24:49.324Z,13.87
2017-10-26T08:28:52.750Z,13.81
2017-10-26T08:32:56.197Z,13.83
2017-10-26T08:36:59.620Z,14.09
2017-10-26T08:41:03.359Z,14.27
2017-10-26T08:45:06.769Z,14.63
2017-10-26T08:49:10.223Z,14.83
2017-10-26T08:53:13.641Z,15.15
2017-10-26T08:57:17.071Z,15.29
2017-10-26T09:01:20.489Z,15.26
2017-10-26T09:05:23.917Z,15.28
2017-10-26T09:09:27.318Z,15.20
2017-10-26T09:13:30.771Z,15.41
2017-10-26T09:17:34.190Z,15.40
2017-10-26T09:21:38.391Z,15.47
2017-10-26T09:25:41.788Z,15.66
2017-10-26T09:29:45.259Z,15.66
2017-10-26T09:33:48.683Z,15.76
2017-10-26T09:37:52.112Z,15.34
2017-10-26T09:41:55.520Z,15.34
2017-10-26T09:45:58.944Z,15.27
2017-10-26T09:50:02.344Z,15.38
2017-10-26T09:54:05.808Z,15.86
2017-10-26T09:58:09.218Z,16.02
2017-10-26T10:02:12.673Z,15.97
2017-10-26T10:06:16.091Z,15.99
2017-10-26T10:10:20.295Z,15.91
2017-10-26T10:14:23.698Z,15.73
2017-10-26T10:18:27.143Z,15.83
2017-10-26T10:22:30.547Z,15.99
2017-10-26T10:26:34.029Z,15.93
2017-10-26T10:30:38.216Z,15.96
2017-10-26T10:34:41.640Z,15.97
2017-10-26T10:38:45.051Z,16.06
2017-10-26T10:42:48.476Z,16.11
2017-10-26T10:46:52.646Z,16.17
2017-10-26T10:50:56.105Z,16.14
2017-10-26T10:55:00.271Z,15.96
2017-10-26T10:59:09.192Z,15.98
2017-10-26T11:03:12.588Z,15.99
2017-10-26T11:07:16.034Z,16.01
2017-10-26T11:11:19.423Z,15.97
2017-10-26T11:15:22.846Z,15.95
2017-10-26T11:19:26.256Z,16.10
2017-10-26T11:23:29.687Z,16.16
2017-10-26T11:27:33.094Z,16.11
2017-10-26T11:31:36.531Z,16.09
2017-10-26T11:35:39.977Z,16.16
2017-10-26T11:39:44.144Z,16.30
2017-10-26T11:43:48.337Z,16.40
2017-10-26T11:47:51.775Z,16.63
2017-10-26T11:51:55.952Z,16.69
2017-10-26T11:55:59.379Z,16.66
2017-10-26T12:00:02.769Z,16.53
2017-10-26T12:04:06.235Z,16.63
2017-10-26T12:08:09.738Z,16.83
2017-10-26T12:12:13.286Z,16.67
2017-10-26T12:16:16.736Z,16.47
2017-10-26T12:20:21.021Z,16.46
2017-10-26T12:24:24.502Z,16.42
2017-10-26T12:28:27.996Z,16.26
2017-10-26T12:32:31.452Z,16.26
2017-10-26T12:36:35.292Z,16.29
2017-10-26T12:40:38.723Z,16.25
2017-10-26T12:44:43.198Z,16.18
2017-10-26T12:48:46.604Z,16.19
2017-10-26T12:52:50.059Z,16.13
2017-10-26T12:56:54.217Z,16.00
2017-10-26T13:00:57.662Z,16.04
2017-10-26T13:05:01.096Z,16.24
2017-10-26T13:09:05.630Z,16.37
2017-10-26T13:13:09.796Z,16.49
2017-10-26T13:17:13.248Z,16.65
2017-10-26T13:21:16.633Z,16.74
2017-10-26T13:25:20.396Z,16.70
2017-10-26T13:29:23.821Z,16.55
2017-10-26T13:33:27.292Z,16.37
2017-10-26T13:37:31.466Z,16.37
2017-10-26T13:41:34.909Z,16.46
2017-10-26T13:45:38.360Z,16.57
2017-10-26T13:49:41.822Z,16.51
2017-10-26T13:53:46.003Z,16.64
2017-10-26T13:57:49.446Z,16.79
2017-10-26T14:01:52.859Z,16.81
2017-10-26T14:05:56.307Z,16.73
2017-10-26T14:09:59.834Z,16.78
2017-10-26T14:14:03.287Z,16.80
2017-10-26T14:18:07.478Z,16.69
2017-10-26T14:22:10.926Z,16.61
2017-10-26T14:26:15.156Z,16.48
2017-10-26T14:30:19.374Z,16.35
2017-10-26T14:34:22.799Z,16.28
2017-10-26T14:38:26.267Z,16.22
2017-10-26T14:42:29.697Z,16.10
2017-10-26T14:46:33.967Z,16.03
2017-10-26T14:50:37.362Z,15.92
2017-10-26T14:54:40.815Z,15.82
2017-10-26T14:58:45.020Z,15.65
2017-10-26T15:02:48.452Z,15.62
2017-10-26T15:06:51.881Z,15.57
2017-10-26T15:13:16.888Z,15.41
2017-10-26T15:17:20.370Z,15.24
2017-10-26T15:21:23.909Z,15.04
2017-10-26T15:25:27.365Z,14.89
2017-10-26T15:29:30.880Z,14.83
2017-10-26T15:33:34.613Z,14.82
2017-10-26T15:37:38.102Z,14.78
2017-10-26T15:45:07.978Z,14.69
2017-10-26T15:51:11.467Z,14.54
2017-10-26T15:57:15.100Z,14.46
2017-10-26T16:03:18.702Z,14.39
2017-10-26T16:09:22.957Z,14.27
2017-10-26T16:15:26.565Z,14.19
2017-10-26T16:21:30.043Z,14.11
2017-10-26T16:27:33.556Z,13.98
2017-10-26T16:33:37.057Z,13.90
2017-10-26T16:39:40.588Z,13.73
2017-10-26T16:45:45.020Z,13.65
2017-10-26T16:51:49.651Z,13.67
2017-10-26T16:57:53.470Z,13.69
2017-10-26T17:03:58.045Z,13.70
2017-10-26T17:10:02.348Z,13.73
2017-10-26T17:16:06.319Z,13.76
2017-10-26T17:22:09.819Z,13.89
2017-10-26T17:28:13.824Z,13.96
2017-10-26T17:34:17.458Z,13.86
2017-10-26T17:40:21.712Z,13.90
2017-10-26T17:46:25.382Z,13.67
2017-10-26T17:52:28.999Z,13.58
2017-10-26T17:58:32.483Z,13.57
2017-10-26T18:04:35.968Z,13.65
2017-10-26T18:10:40.534Z,13.84
2017-10-26T18:16:45.170Z,13.75
2017-10-26T18:22:48.942Z,13.82
2017-10-26T18:28:52.436Z,13.77
2017-10-26T18:34:56.721Z,13.80
2017-10-26T18:41:00.387Z,13.84
2017-10-26T18:47:03.903Z,13.80
2017-10-26T18:53:07.384Z,13.70
2017-10-26T18:59:10.899Z,13.60
2017-10-26T19:05:14.439Z,13.48
2017-10-26T19:11:18.169Z,13.38
2017-10-26T19:17:21.663Z,13.38
2017-10-26T19:23:25.151Z,13.31
2017-10-26T19:29:29.389Z,13.37
2017-10-26T19:35:32.864Z,13.42
2017-10-26T19:41:37.394Z,13.39
2017-10-26T19:47:40.886Z,13.32
2017-10-26T19:53:44.509Z,13.23
2017-10-26T19:59:48.409Z,13.10
2017-10-26T20:05:52.682Z,13.16
2017-10-26T20:11:56.176Z,13.16
2017-10-26T20:17:59.673Z,12.99
2017-10-26T20:24:03.388Z,12.89
2017-10-26T20:30:07.116Z,12.86
2017-10-26T20:36:11.399Z,12.81
2017-10-26T20:42:15.734Z,12.72
2017-10-26T20:48:19.603Z,12.74
2017-10-26T20:54:28.667Z,12.79
2017-10-26T21:00:37.715Z,12.80
2017-10-26T21:06:41.194Z,12.83
2017-10-26T21:12:50.241Z,12.78
2017-10-26T21:18:54.697Z,12.79
2017-10-26T21:24:58.316Z,12.72
2017-10-26T21:31:01.809Z,12.68
2017-10-26T21:37:05.305Z,12.66
2017-10-26T21:43:08.796Z,12.74
2017-10-26T21:49:12.345Z,12.78
2017-10-26T21:55:16.040Z,12.78
2017-10-26T22:01:20.205Z,12.74
2017-10-26T22:07:23.693Z,12.71
2017-10-26T22:13:27.170Z,12.72
2017-10-26T22:19:30.695Z,12.78
2017-10-26T22:25:34.521Z,12.88
2017-10-26T22:31:38.006Z,12.95
2017-10-26T22:37:41.484Z,12.96
2017-10-26T22:43:44.973Z,12.88
2017-10-26T22:49:48.694Z,12.80
2017-10-26T22:55:52.942Z,12.76
2017-10-26T23:01:57.492Z,12.83
2017-10-26T23:08:00.973Z,12.86
2017-10-26T23:14:05.575Z,12.83
2017-10-26T23:20:09.141Z,12.77
2017-10-26T23:26:14.152Z,12.64
2017-10-26T23:32:18.469Z,12.57
2017-10-26T23:38:21.959Z,12.62
2017-10-26T23:44:25.459Z,12.62
2017-10-26T23:50:29.700Z,12.59
2017-10-26T23:56:33.443Z,12.55
